Time;durP1;ratioP1;P1;durP2;ratioP2;P2;SDS_P1;SDS_P2;PMS_P1;PMS_P2;Temp;Humidity;BMP_temperature;BMP_pressure;BME280_temperature;BME280_humidity;BME280_pressure;Samples;Min_cycle;Max_cycle;Signal;HPM_P1;HPM_P2
2022/04/09 00:01:03;;;;;;;0.83;0.83;;;0.70;99.90;;;;;;5042127;28;20187;-80
2022/04/09 00:03:29;;;;;;;0.80;0.80;;;0.80;99.90;;;;;;5072759;28;20179;-80
2022/04/09 00:05:55;;;;;;;0.80;0.80;;;0.80;99.90;;;;;;5074875;28;20175;-80
2022/04/09 00:08:21;;;;;;;0.93;0.93;;;0.90;99.90;;;;;;5069602;28;20178;-81
2022/04/09 00:10:46;;;;;;;0.80;0.80;;;1.00;99.90;;;;;;5066253;28;20226;-79
2022/04/09 00:13:12;;;;;;;0.90;0.90;;;1.00;99.90;;;;;;5067801;28;20179;-79
2022/04/09 00:15:37;;;;;;;0.90;0.90;;;1.00;99.90;;;;;;5059825;28;20179;-81
2022/04/09 00:18:03;;;;;;;0.80;0.80;;;1.00;99.90;;;;;;5061396;28;20694;-81
2022/04/09 00:20:29;;;;;;;0.90;0.90;;;1.10;99.90;;;;;;5060247;28;20195;-81
2022/04/09 00:22:54;;;;;;;0.80;0.80;;;1.20;99.90;;;;;;5065142;28;20187;-81
2022/04/09 00:25:26;;;;;;;0.80;0.80;;;1.10;99.90;;;;;;5067052;28;20250;-81
2022/04/09 00:27:53;;;;;;;0.90;0.90;;;1.20;99.90;;;;;;5067206;28;20175;-81
2022/04/09 00:30:19;;;;;;;0.80;0.80;;;1.20;99.90;;;;;;5066503;28;20219;-80
2022/04/09 00:32:45;;;;;;;0.90;0.90;;;1.20;99.90;;;;;;5064485;28;20180;-81
2022/04/09 00:35:11;;;;;;;1.00;1.00;;;1.20;99.90;;;;;;5062566;28;20186;-81
2022/04/09 00:37:44;;;;;;;0.90;0.90;;;1.20;99.90;;;;;;5061977;28;20218;-82
2022/04/09 00:40:15;;;;;;;0.90;0.90;;;1.30;99.90;;;;;;5063553;28;20195;-80
2022/04/09 00:42:42;;;;;;;0.90;0.90;;;1.30;99.90;;;;;;5064410;28;20203;-79
2022/04/09 00:45:09;;;;;;;0.90;0.90;;;1.20;99.90;;;;;;5063262;28;20175;-79
2022/04/09 00:47:35;;;;;;;0.97;0.97;;;1.20;99.90;;;;;;5063429;28;20538;-80
2022/04/09 00:50:01;;;;;;;0.90;0.90;;;1.20;99.90;;;;;;5061910;28;20196;-80
2022/04/09 00:52:27;;;;;;;0.80;0.80;;;1.30;99.90;;;;;;5064345;28;20197;-79
2022/04/09 00:54:55;;;;;;;0.90;0.90;;;1.20;99.90;;;;;;5069005;28;20182;-80
2022/04/09 00:57:25;;;;;;;1.00;1.00;;;1.20;99.90;;;;;;5072560;28;20278;-80
2022/04/09 00:59:52;;;;;;;0.90;0.90;;;1.20;99.90;;;;;;5068235;28;20195;-81
2022/04/09 01:02:18;;;;;;;0.80;0.80;;;1.30;99.90;;;;;;5069783;28;20181;-80
2022/04/09 01:04:46;;;;;;;0.90;0.90;;;1.30;99.90;;;;;;5070059;28;20175;-80
2022/04/09 01:07:13;;;;;;;0.90;0.90;;;1.40;99.90;;;;;;5060744;28;20199;-79
2022/04/09 01:09:39;;;;;;;0.90;0.90;;;1.40;99.90;;;;;;5057827;28;20185;-81
2022/04/09 01:12:05;;;;;;;0.80;0.80;;;1.40;99.90;;;;;;5060144;28;20171;-80
2022/04/09 01:14:34;;;;;;;0.90;0.90;;;1.40;99.90;;;;;;5061624;28;20562;-80
2022/04/09 01:17:00;;;;;;;0.90;0.90;;;1.50;99.90;;;;;;5059870;28;20175;-81
2022/04/09 01:19:25;;;;;;;0.80;0.80;;;1.50;99.90;;;;;;5058086;28;20765;-78
2022/04/09 01:21:54;;;;;;;1.00;1.00;;;1.50;99.90;;;;;;5062870;28;20203;-81
2022/04/09 01:24:19;;;;;;;0.80;0.80;;;1.40;99.90;;;;;;5057383;28;20183;-79
2022/04/09 01:26:45;;;;;;;0.80;0.80;;;1.50;99.90;;;;;;5057080;28;20178;-79
2022/04/09 01:29:11;;;;;;;1.00;1.00;;;1.50;99.90;;;;;;5060716;28;20598;-79
2022/04/09 01:31:36;;;;;;;0.90;0.90;;;1.50;99.90;;;;;;5062449;28;20737;-80
2022/04/09 01:34:02;;;;;;;0.90;0.90;;;1.40;99.90;;;;;;5068061;28;20179;-79
2022/04/09 01:36:27;;;;;;;0.90;0.90;;;1.50;99.90;;;;;;5069903;28;20247;-82
2022/04/09 01:38:53;;;;;;;0.80;0.80;;;1.50;99.90;;;;;;5065739;28;20248;-85
2022/04/09 01:41:18;;;;;;;0.80;0.80;;;1.50;99.90;;;;;;5064469;28;20195;-81
2022/04/09 01:43:44;;;;;;;0.80;0.80;;;1.50;99.90;;;;;;5059641;28;20179;-78
2022/04/09 01:46:09;;;;;;;0.90;0.90;;;1.40;99.90;;;;;;5054920;28;20187;-81
2022/04/09 01:48:35;;;;;;;0.90;0.90;;;1.50;99.90;;;;;;5055334;28;20656;-78
2022/04/09 01:51:00;;;;;;;0.90;0.90;;;1.50;99.90;;;;;;5053807;28;20203;-78
2022/04/09 01:53:26;;;;;;;0.90;0.90;;;1.50;99.90;;;;;;5055147;28;20191;-79
2022/04/09 01:55:52;;;;;;;0.90;0.90;;;1.50;99.90;;;;;;5056367;28;20180;-78
2022/04/09 01:58:17;;;;;;;0.80;0.80;;;1.60;99.90;;;;;;5057089;28;20207;-79
2022/04/09 02:00:43;;;;;;;0.90;0.90;;;1.60;99.90;;;;;;5056906;28;20200;-80
2022/04/09 02:03:08;;;;;;;0.90;0.90;;;1.60;99.90;;;;;;5061732;28;20237;-80
2022/04/09 02:05:34;;;;;;;0.80;0.80;;;1.60;99.90;;;;;;5057215;28;20179;-79
2022/04/09 02:08:01;;;;;;;0.80;0.80;;;1.60;99.90;;;;;;5057503;28;20241;-80
2022/04/09 02:10:28;;;;;;;0.90;0.90;;;1.70;99.90;;;;;;5056218;28;20278;-83
2022/04/09 02:12:54;;;;;;;0.90;0.90;;;1.70;99.90;;;;;;5052959;28;20240;-80
2022/04/09 02:15:19;;;;;;;0.80;0.80;;;1.70;99.90;;;;;;5052794;28;20274;-80
2022/04/09 02:17:45;;;;;;;0.80;0.80;;;1.70;99.90;;;;;;5054020;28;20239;-82
2022/04/09 02:20:13;;;;;;;0.80;0.80;;;1.70;99.90;;;;;;5056790;28;20210;-79
2022/04/09 02:22:43;;;;;;;0.87;0.87;;;1.70;99.90;;;;;;5066072;28;20184;-81
2022/04/09 02:25:13;;;;;;;0.90;0.90;;;1.70;99.90;;;;;;5064327;28;20235;-78
2022/04/09 02:27:39;;;;;;;0.90;0.90;;;1.80;99.90;;;;;;5064269;28;20628;-79
2022/04/09 02:30:08;;;;;;;0.90;0.90;;;1.70;99.90;;;;;;5070658;28;20199;-79
2022/04/09 02:32:46;;;;;;;0.90;0.90;;;1.80;99.90;;;;;;5071307;28;20206;-80
2022/04/09 02:35:12;;;;;;;0.80;0.80;;;1.80;99.90;;;;;;5070988;28;20183;-80
2022/04/09 02:37:39;;;;;;;0.83;0.83;;;1.70;99.90;;;;;;5068678;28;20210;-79
2022/04/09 02:40:05;;;;;;;0.90;0.90;;;1.70;99.90;;;;;;5067934;28;20222;-79
2022/04/09 02:42:31;;;;;;;0.87;0.87;;;1.80;99.90;;;;;;5066218;28;20544;-78
2022/04/09 02:44:56;;;;;;;0.80;0.80;;;1.80;99.90;;;;;;5068565;28;20180;-79
2022/04/09 02:47:22;;;;;;;0.80;0.80;;;1.90;99.90;;;;;;5063430;28;20183;-79
2022/04/09 02:49:47;;;;;;;0.70;0.70;;;1.80;99.90;;;;;;5066445;28;20248;-81
2022/04/09 02:52:13;;;;;;;0.87;0.87;;;1.90;99.90;;;;;;5067198;28;20210;-79
2022/04/09 02:54:38;;;;;;;0.80;0.80;;;1.90;99.90;;;;;;5057965;28;20259;-78
2022/04/09 02:57:04;;;;;;;0.80;0.80;;;2.00;99.90;;;;;;5058298;28;20175;-78
2022/04/09 02:59:31;;;;;;;0.80;0.80;;;1.90;99.90;;;;;;5068775;28;20231;-79
2022/04/09 03:01:58;;;;;;;0.80;0.80;;;1.90;99.90;;;;;;5070903;28;20206;-83
2022/04/09 03:04:23;;;;;;;0.90;0.90;;;1.80;99.90;;;;;;5071708;28;20191;-79
2022/04/09 03:06:49;;;;;;;0.80;0.80;;;1.80;99.90;;;;;;5070638;28;20175;-80
2022/04/09 03:09:14;;;;;;;0.80;0.80;;;1.80;99.90;;;;;;5068570;28;20189;-80
2022/04/09 03:11:40;;;;;;;0.90;0.90;;;1.80;99.90;;;;;;5069335;28;20227;-78
2022/04/09 03:14:06;;;;;;;0.90;0.90;;;1.90;99.90;;;;;;5069062;28;20194;-80
2022/04/09 03:16:32;;;;;;;0.83;0.83;;;1.90;99.90;;;;;;5066131;28;20655;-79
2022/04/09 03:18:58;;;;;;;1.00;1.00;;;1.80;99.90;;;;;;5060101;28;20298;-78
2022/04/09 03:21:23;;;;;;;0.80;0.80;;;1.90;99.90;;;;;;5062929;28;20241;-79
2022/04/09 03:23:49;;;;;;;0.80;0.80;;;1.90;99.90;;;;;;5066381;28;20448;-78
2022/04/09 03:26:14;;;;;;;0.80;0.80;;;1.90;99.90;;;;;;5065876;28;20203;-79
2022/04/09 03:28:40;;;;;;;0.77;0.77;;;2.10;99.90;;;;;;5064767;28;20190;-81
2022/04/09 03:31:07;;;;;;;0.90;0.90;;;2.00;99.90;;;;;;5060491;28;20202;-79
2022/04/09 03:33:32;;;;;;;0.90;0.90;;;2.00;99.90;;;;;;5061695;28;20198;-83
2022/04/09 03:35:58;;;;;;;0.80;0.80;;;1.90;99.90;;;;;;5066050;28;20168;-80
2022/04/09 03:38:23;;;;;;;0.80;0.80;;;1.90;99.90;;;;;;5062780;28;20767;-82
2022/04/09 03:40:49;;;;;;;0.80;0.80;;;1.90;99.90;;;;;;5059577;28;20191;-82
2022/04/09 03:43:15;;;;;;;0.90;0.90;;;1.90;99.90;;;;;;5074328;28;20179;-82
2022/04/09 03:45:40;;;;;;;0.80;0.80;;;2.00;99.90;;;;;;5076126;28;20205;-81
2022/04/09 03:48:06;;;;;;;0.90;0.90;;;2.00;99.90;;;;;;5073045;28;20179;-84
2022/04/09 03:50:32;;;;;;;0.90;0.90;;;2.00;99.90;;;;;;5075230;28;20214;-81
2022/04/09 03:52:58;;;;;;;0.90;0.90;;;2.00;99.90;;;;;;5067807;28;20217;-79
2022/04/09 03:55:25;;;;;;;0.87;0.87;;;2.10;99.90;;;;;;5062237;28;20167;-78
2022/04/09 03:57:50;;;;;;;0.80;0.80;;;2.10;99.90;;;;;;5061155;28;20227;-81
2022/04/09 04:00:16;;;;;;;0.90;0.90;;;2.10;99.90;;;;;;5062049;28;20660;-80
2022/04/09 04:02:42;;;;;;;0.80;0.80;;;2.10;99.90;;;;;;5063012;28;20171;-79
2022/04/09 04:05:08;;;;;;;0.90;0.90;;;2.10;99.90;;;;;;5063791;28;20244;-79
2022/04/09 04:07:34;;;;;;;0.80;0.80;;;2.20;99.90;;;;;;5063746;28;20231;-81
2022/04/09 04:10:04;;;;;;;0.90;0.90;;;2.20;99.90;;;;;;5065296;28;20195;-80
2022/04/09 04:12:30;;;;;;;0.80;0.80;;;2.20;99.90;;;;;;5045805;28;20338;-81
2022/04/09 04:14:55;;;;;;;0.77;0.77;;;2.20;99.90;;;;;;5063721;28;20183;-81
2022/04/09 04:17:21;;;;;;;0.80;0.80;;;2.20;99.90;;;;;;5062969;28;20222;-81
2022/04/09 04:19:46;;;;;;;0.80;0.80;;;2.30;99.90;;;;;;5062998;28;20188;-79
2022/04/09 04:22:12;;;;;;;0.80;0.80;;;2.20;99.90;;;;;;5065893;28;20172;-82
2022/04/09 04:24:37;;;;;;;0.90;0.90;;;2.30;99.90;;;;;;5057894;28;20179;-81
2022/04/09 04:27:05;;;;;;;0.80;0.80;;;2.40;99.90;;;;;;5055948;28;20297;-81
2022/04/09 04:29:31;;;;;;;0.90;0.90;;;2.40;99.90;;;;;;5055272;28;20183;-83
2022/04/09 04:31:56;;;;;;;0.90;0.90;;;2.40;99.90;;;;;;5055686;28;20214;-81
2022/04/09 04:34:22;;;;;;;0.80;0.80;;;2.30;99.90;;;;;;5056649;28;20240;-80
2022/04/09 04:36:47;;;;;;;0.80;0.80;;;2.30;99.90;;;;;;5059982;28;20175;-81
2022/04/09 04:39:13;;;;;;;0.80;0.80;;;2.20;99.90;;;;;;5057222;28;20215;-79
2022/04/09 04:41:39;;;;;;;0.90;0.90;;;2.10;99.90;;;;;;5057997;28;20195;-81
2022/04/09 04:44:06;;;;;;;1.00;1.00;;;2.10;99.90;;;;;;5059242;28;20175;-81
2022/04/09 04:46:31;;;;;;;0.80;0.80;;;2.10;99.90;;;;;;5065900;28;20569;-81
2022/04/09 04:48:57;;;;;;;0.90;0.90;;;2.00;99.90;;;;;;5067926;28;20175;-81
2022/04/09 04:51:22;;;;;;;0.90;0.90;;;2.10;99.90;;;;;;5162472;22;20286;-74
2022/04/09 04:53:48;;;;;;;0.97;0.97;;;2.00;99.90;;;;;;5072228;28;20299;-75
2022/04/09 04:56:13;;;;;;;0.73;0.73;;;1.90;99.90;;;;;;5072149;28;20566;-74
2022/04/09 04:58:39;;;;;;;0.80;0.80;;;1.90;99.90;;;;;;5071741;28;20214;-74
2022/04/09 05:01:06;;;;;;;1.00;1.00;;;1.90;99.90;;;;;;5071422;28;20199;-74
2022/04/09 05:03:32;;;;;;;0.90;0.90;;;1.90;99.90;;;;;;5072286;28;20183;-74
2022/04/09 05:05:58;;;;;;;0.80;0.80;;;2.00;99.90;;;;;;5071782;28;20538;-75
2022/04/09 05:08:23;;;;;;;0.90;0.90;;;1.90;99.90;;;;;;5071678;28;20217;-73
2022/04/09 05:10:49;;;;;;;0.90;0.90;;;2.00;99.90;;;;;;5071411;28;20191;-73
2022/04/09 05:13:14;;;;;;;1.00;1.00;;;1.90;99.90;;;;;;5071955;28;20200;-73
2022/04/09 05:15:40;;;;;;;0.90;0.90;;;2.00;99.90;;;;;;5071654;28;20565;-72
2022/04/09 05:18:06;;;;;;;0.90;0.90;;;2.00;99.90;;;;;;5071602;28;20206;-72
2022/04/09 05:20:31;;;;;;;0.80;0.80;;;2.10;99.90;;;;;;5071038;28;20194;-72
2022/04/09 05:22:57;;;;;;;0.80;0.80;;;2.10;99.90;;;;;;5071861;28;20670;-72
2022/04/09 05:25:23;;;;;;;0.80;0.80;;;2.20;99.90;;;;;;5071765;28;20174;-72
2022/04/09 05:27:49;;;;;;;0.90;0.90;;;2.10;99.90;;;;;;5071622;28;20174;-72
2022/04/09 05:30:15;;;;;;;0.90;0.90;;;2.20;99.90;;;;;;5071116;28;20194;-72
2022/04/09 05:32:41;;;;;;;0.90;0.90;;;2.30;99.90;;;;;;5071471;28;20662;-73
2022/04/09 05:35:07;;;;;;;0.90;0.90;;;2.30;99.90;;;;;;5071537;28;20643;-72
2022/04/09 05:37:33;;;;;;;0.80;0.80;;;2.30;99.90;;;;;;5071662;28;20259;-72
2022/04/09 05:39:58;;;;;;;0.90;0.90;;;2.50;99.90;;;;;;5071120;28;20194;-72
2022/04/09 05:42:25;;;;;;;0.83;0.83;;;2.60;99.90;;;;;;5071661;28;20178;-71
2022/04/09 05:44:52;;;;;;;0.80;0.80;;;2.80;99.90;;;;;;5071597;28;20174;-72
2022/04/09 05:47:18;;;;;;;0.87;0.87;;;2.90;99.90;;;;;;5071200;28;20179;-72
2022/04/09 05:49:44;;;;;;;0.80;0.80;;;3.10;99.90;;;;;;5070641;28;20181;-72
2022/04/09 05:52:09;;;;;;;0.80;0.80;;;3.10;99.90;;;;;;5071483;28;20186;-72
2022/04/09 05:54:35;;;;;;;0.70;0.70;;;3.00;99.90;;;;;;5071397;28;20223;-72
2022/04/09 05:57:01;;;;;;;0.67;0.67;;;3.00;99.90;;;;;;5071339;28;20174;-72
2022/04/09 05:59:27;;;;;;;0.70;0.70;;;3.10;99.90;;;;;;5070737;28;20218;-71
2022/04/09 06:01:53;;;;;;;0.80;0.80;;;3.30;99.90;;;;;;5071205;28;20205;-73
2022/04/09 06:04:22;;;;;;;0.63;0.63;;;3.30;99.90;;;;;;5075076;28;20174;-72
2022/04/09 06:06:48;;;;;;;0.80;0.80;;;3.60;99.90;;;;;;5075193;28;20170;-72
2022/04/09 06:09:14;;;;;;;0.70;0.70;;;3.70;99.90;;;;;;5073854;28;20201;-72
2022/04/09 06:11:41;;;;;;;0.70;0.70;;;3.50;99.90;;;;;;5075743;28;20198;-72
2022/04/09 06:14:08;;;;;;;0.70;0.70;;;3.40;99.90;;;;;;5077179;28;20183;-74
2022/04/09 06:16:35;;;;;;;0.77;0.77;;;3.30;99.90;;;;;;5077190;28;20167;-73
2022/04/09 06:19:01;;;;;;;0.83;0.83;;;3.30;99.90;;;;;;5075671;28;20234;-72
2022/04/09 06:21:29;;;;;;;0.70;0.70;;;3.30;99.90;;;;;;5075552;28;20225;-73
2022/04/09 06:23:56;;;;;;;0.70;0.70;;;3.30;99.90;;;;;;5074405;28;20185;-71
2022/04/09 06:26:22;;;;;;;0.70;0.70;;;3.50;99.90;;;;;;5074913;28;20179;-70
2022/04/09 06:28:47;;;;;;;0.80;0.80;;;3.60;99.90;;;;;;5074747;28;20175;-72
2022/04/09 06:31:13;;;;;;;0.80;0.80;;;3.40;99.90;;;;;;5074143;28;20637;-71
2022/04/09 06:33:38;;;;;;;0.50;0.50;;;3.40;99.90;;;;;;5073733;28;20867;-72
2022/04/09 06:36:04;;;;;;;0.70;0.70;;;3.10;99.90;;;;;;5074756;28;20212;-73
2022/04/09 06:38:31;;;;;;;0.70;0.70;;;3.20;99.90;;;;;;5065208;28;20240;-72
2022/04/09 06:40:56;;;;;;;0.90;0.90;;;3.20;99.90;;;;;;5063096;28;20192;-73
2022/04/09 06:43:22;;;;;;;0.70;0.70;;;3.30;99.90;;;;;;5064001;28;20185;-71
2022/04/09 06:45:47;;;;;;;0.83;0.83;;;3.40;99.90;;;;;;5064967;28;20178;-72
2022/04/09 06:48:13;;;;;;;0.80;0.80;;;3.70;99.90;;;;;;5066918;28;20231;-72
2022/04/09 06:50:38;;;;;;;0.70;0.70;;;3.80;99.90;;;;;;5073322;28;20243;-72
2022/04/09 06:53:04;;;;;;;0.77;0.77;;;4.00;99.90;;;;;;5073960;28;20247;-72
2022/04/09 06:55:30;;;;;;;0.70;0.70;;;4.00;99.90;;;;;;5073743;28;20193;-73
2022/04/09 06:58:01;;;;;;;0.70;0.70;;;3.80;75.60;;;;;;5074543;28;20643;-73
2022/04/09 07:00:27;;;;;;;0.70;0.70;;;3.90;52.10;;;;;;5073509;28;20194;-72
2022/04/09 07:02:52;;;;;;;0.70;0.70;;;4.10;55.50;;;;;;5074244;28;20205;-72
2022/04/09 07:05:18;;;;;;;0.70;0.70;;;4.10;97.70;;;;;;5074223;28;20174;-72
2022/04/09 07:07:48;;;;;;;0.70;0.70;;;4.10;17.50;;;;;;5074093;28;20194;-72
2022/04/09 07:10:13;;;;;;;0.80;0.80;;;4.10;66.30;;;;;;5073496;28;20202;-73
2022/04/09 07:12:39;;;;;;;0.80;0.80;;;3.90;1.00;;;;;;5073905;28;20178;-72
2022/04/09 07:15:06;;;;;;;0.80;0.80;;;4.00;10.40;;;;;;5073578;28;20183;-73
2022/04/09 07:17:31;;;;;;;0.70;0.70;;;4.00;1.00;;;;;;5073398;28;20222;-72
2022/04/09 07:20:01;;;;;;;0.70;0.70;;;3.90;1.00;;;;;;5072959;28;20194;-72
2022/04/09 07:22:27;;;;;;;0.70;0.70;;;4.00;1.00;;;;;;5073736;28;20175;-72
2022/04/09 07:24:53;;;;;;;0.70;0.70;;;4.00;6.50;;;;;;5073961;28;20185;-73
2022/04/09 07:27:20;;;;;;;0.70;0.70;;;3.80;1.00;;;;;;5074298;28;20519;-72
2022/04/09 07:29:45;;;;;;;0.80;0.80;;;3.80;1.00;;;;;;5073601;28;20198;-73
2022/04/09 07:32:11;;;;;;;0.70;0.70;;;4.00;1.00;;;;;;5074854;28;20209;-71
2022/04/09 07:34:37;;;;;;;0.80;0.80;;;4.10;1.00;;;;;;5073567;28;20635;-71
2022/04/09 07:37:03;;;;;;;0.80;0.80;;;4.10;53.30;;;;;;5073720;28;20247;-73
2022/04/09 07:39:29;;;;;;;0.80;0.80;;;4.10;1.00;;;;;;5073011;28;20218;-71
2022/04/09 07:41:54;;;;;;;0.80;0.80;;;4.30;25.50;;;;;;5073286;28;20197;-72
2022/04/09 07:44:22;;;;;;;0.77;0.77;;;4.90;1.00;;;;;;5073188;28;20178;-72
2022/04/09 07:46:48;;;;;;;0.70;0.70;;;5.00;1.00;;;;;;5073456;28;20170;-72
2022/04/09 07:49:14;;;;;;;0.70;0.70;;;6.00;99.90;;;;;;5072835;28;20186;-72
2022/04/09 07:51:39;;;;;;;0.70;0.70;;;6.00;99.90;;;;;;5073389;28;20682;-72
2022/04/09 07:54:05;;;;;;;0.70;0.70;;;5.70;1.00;;;;;;5067337;28;20175;-72
2022/04/09 07:56:30;;;;;;;0.60;0.60;;;7.00;1.00;;;;;;5063575;28;20177;-71
2022/04/09 07:58:56;;;;;;;0.70;0.70;;;7.30;99.90;;;;;;5071799;28;20202;-72
2022/04/09 08:01:21;;;;;;;0.60;0.60;;;8.60;99.90;;;;;;5072597;28;20194;-72
2022/04/09 08:03:49;;;;;;;0.60;0.60;;;8.10;1.00;;;;;;5073135;28;20181;-73
2022/04/09 08:06:14;;;;;;;0.60;0.60;;;7.50;1.00;;;;;;5072996;28;20182;-72
2022/04/09 08:08:40;;;;;;;0.50;0.50;;;6.50;99.90;;;;;;5072781;28;20178;-72
2022/04/09 08:11:05;;;;;;;0.70;0.70;;;6.30;1.00;;;;;;5071892;28;20194;-71
2022/04/09 08:13:31;;;;;;;0.60;0.60;;;6.30;99.90;;;;;;5072147;28;20178;-72
2022/04/09 08:15:57;;;;;;;0.70;0.70;;;6.90;20.70;;;;;;5072333;28;20175;-73
2022/04/09 08:18:22;;;;;;;0.60;0.60;;;8.10;99.90;;;;;;5072373;28;20214;-72
2022/04/09 08:20:48;;;;;;;0.50;0.50;;;7.90;99.90;;;;;;5072072;28;20191;-72
2022/04/09 08:23:13;;;;;;;0.67;0.67;;;7.50;1.00;;;;;;5072587;28;20521;-72
2022/04/09 08:25:39;;;;;;;0.60;0.60;;;7.00;99.90;;;;;;5071718;28;20166;-72
2022/04/09 08:28:04;;;;;;;0.60;0.60;;;6.70;99.90;;;;;;5072194;28;20175;-71
2022/04/09 08:30:30;;;;;;;0.60;0.60;;;6.40;99.90;;;;;;5071725;28;20209;-73
2022/04/09 08:32:57;;;;;;;0.70;0.70;;;6.00;1.00;;;;;;5072491;28;20209;-71
2022/04/09 08:35:22;;;;;;;0.60;0.60;;;5.50;1.00;;;;;;5072322;28;20182;-71
2022/04/09 08:37:53;;;;;;;0.70;0.70;;;5.40;1.00;;;;;;5072264;28;20572;-71
2022/04/09 08:40:19;;;;;;;0.70;0.70;;;5.40;99.90;;;;;;5070962;28;20263;-72
2022/04/09 08:42:46;;;;;;;0.60;0.60;;;5.10;99.90;;;;;;5068236;28;20183;-72
2022/04/09 08:45:11;;;;;;;0.70;0.70;;;5.10;1.00;;;;;;5072189;28;20187;-73
2022/04/09 08:47:39;;;;;;;0.70;0.70;;;5.20;1.00;;;;;;5072272;28;20185;-75
2022/04/09 08:50:04;;;;;;;0.80;0.80;;;5.20;1.00;;;;;;5053563;28;20285;-73
2022/04/09 08:52:31;;;;;;;0.80;0.80;;;5.10;1.00;;;;;;5069769;28;20293;-72
2022/04/09 08:54:56;;;;;;;0.70;0.70;;;5.20;1.00;;;;;;5059877;28;20206;-73
2022/04/09 08:57:22;;;;;;;0.70;0.70;;;5.20;1.00;;;;;;5052175;28;20186;-72
2022/04/09 08:59:48;;;;;;;0.70;0.70;;;5.30;1.00;;;;;;5066567;28;20234;-73
2022/04/09 09:02:13;;;;;;;0.80;0.80;;;5.30;1.00;;;;;;5071055;28;20186;-72
2022/04/09 09:04:39;;;;;;;0.80;0.80;;;5.20;1.00;;;;;;5071661;28;20231;-72
2022/04/09 09:07:22;;;;;;;0.70;0.70;;;5.30;1.00;;;;;;5071695;28;20686;-72
2022/04/09 09:09:50;;;;;;;0.77;0.77;;;5.30;1.00;;;;;;5070934;28;20659;-72
2022/04/09 09:12:32;;;;;;;0.77;0.77;;;5.30;1.00;;;;;;5071741;28;20179;-71
2022/04/09 09:14:58;;;;;;;0.77;0.77;;;5.30;1.00;;;;;;5071637;28;20178;-71
2022/04/09 09:17:28;;;;;;;0.70;0.70;;;5.20;1.00;;;;;;5071728;28;20635;-72
2022/04/09 09:19:54;;;;;;;0.80;0.80;;;5.30;1.00;;;;;;5070841;28;20186;-72
2022/04/09 09:22:20;;;;;;;0.70;0.70;;;5.20;1.00;;;;;;5071383;28;20619;-72
2022/04/09 09:25:05;;;;;;;0.70;0.70;;;5.50;1.00;;;;;;5071819;28;20183;-72
2022/04/09 09:27:31;;;;;;;0.65;0.65;;;6.10;1.00;;;;;;5070427;28;20421;-72
2022/04/09 09:29:56;;;;;;;0.80;0.80;;;7.00;1.00;;;;;;5070874;28;20198;-72
2022/04/09 09:32:26;;;;;;;0.60;0.60;;;8.90;1.00;;;;;;5071492;28;20624;-73
2022/04/09 09:34:56;;;;;;;0.50;0.50;;;9.70;99.90;;;;;;5062745;28;20673;-72
2022/04/09 09:37:28;;;;;;;0.40;0.40;;;10.60;1.00;;;;;;5056472;28;20171;-73
2022/04/09 09:39:54;;;;;;;0.40;0.40;;;9.90;1.00;;;;;;5050987;28;20190;-72
2022/04/09 09:42:21;;;;;;;0.43;0.43;;;9.80;99.90;;;;;;5051278;28;20175;-71
2022/04/09 09:44:46;;;;;;;0.40;0.40;;;10.50;99.90;;;;;;5049295;28;20183;-71
2022/04/09 09:47:15;;;;;;;0.40;0.40;;;9.90;99.90;;;;;;5051064;28;20529;-71
2022/04/09 09:49:47;;;;;;;0.43;0.43;;;11.10;99.90;;;;;;5050813;28;20233;-73
2022/04/09 09:52:13;;;;;;;0.40;0.40;;;11.10;1.00;;;;;;5050637;28;20655;-70
2022/04/09 09:55:01;;;;;;;0.40;0.40;;;10.20;1.00;;;;;;5051162;28;20809;-71
2022/04/09 09:57:29;;;;;;;0.50;0.50;;;9.90;1.00;;;;;;5067999;28;20186;-71
2022/04/09 09:59:57;;;;;;;0.47;0.47;;;9.70;1.00;;;;;;5070538;28;20595;-71
2022/04/09 10:02:24;;;;;;;0.40;0.40;;;10.80;99.90;;;;;;5071166;28;20189;-71
2022/04/09 10:04:53;;;;;;;0.40;0.40;;;10.10;1.00;;;;;;5071258;28;20202;-71
2022/04/09 10:07:20;;;;;;;0.40;0.40;;;10.80;1.00;;;;;;5071124;28;20194;-71
2022/04/09 10:09:47;;;;;;;0.40;0.40;;;10.40;48.60;;;;;;5061049;28;20179;-72
2022/04/09 10:12:39;;;;;;;0.50;0.50;;;11.40;1.00;;;;;;5058752;28;20174;-72
2022/04/09 10:15:06;;;;;;;0.40;0.40;;;11.70;1.00;;;;;;5061584;28;20636;-72
2022/04/09 10:17:33;;;;;;;0.40;0.40;;;10.30;1.00;;;;;;5060058;28;20636;-72
2022/04/09 10:20:01;;;;;;;0.40;0.40;;;9.20;1.00;;;;;;5061825;28;20482;-73
2022/04/09 10:22:35;;;;;;;0.47;0.47;;;9.60;1.00;;;;;;5062342;28;20635;-73
2022/04/09 10:25:03;;;;;;;0.40;0.40;;;11.60;1.00;;;;;;5071307;28;20251;-72
2022/04/09 10:27:39;;;;;;;0.40;0.40;;;9.70;1.00;;;;;;5071185;28;20202;-74
2022/04/09 10:30:12;;;;;;;0.50;0.50;;;8.60;1.00;;;;;;5070437;28;20682;-72
2022/04/09 10:32:42;;;;;;;0.40;0.40;;;9.30;99.90;;;;;;5070934;28;20202;-71
2022/04/09 10:35:38;;;;;;;0.50;0.50;;;8.40;99.90;;;;;;5070971;28;20174;-72
2022/04/09 10:38:06;;;;;;;0.40;0.40;;;9.60;1.00;;;;;;5070936;28;20626;-71
2022/04/09 10:40:32;;;;;;;0.47;0.47;;;10.20;1.00;;;;;;5070292;28;20191;-72
2022/04/09 10:42:59;;;;;;;0.60;0.60;;;9.90;1.00;;;;;;5071070;28;20538;-72
2022/04/09 10:45:25;;;;;;;0.50;0.50;;;9.10;1.00;;;;;;5070829;28;20674;-71
2022/04/09 10:48:10;;;;;;;0.60;0.60;;;9.60;68.70;;;;;;5070843;28;20175;-71
2022/04/09 10:50:57;;;;;;;0.50;0.50;;;9.40;1.00;;;;;;5074073;28;20190;-72
2022/04/09 10:53:25;;;;;;;0.50;0.50;;;9.60;1.00;;;;;;5062330;28;20674;-71
2022/04/09 10:56:12;;;;;;;0.40;0.40;;;10.40;1.00;;;;;;5054863;28;20187;-72
2022/04/09 10:59:08;;;;;;;0.53;0.53;;;11.20;1.00;;;;;;5055547;28;20288;-71
2022/04/09 11:01:46;;;;;;;0.50;0.50;;;11.20;1.00;;;;;;5055887;28;20211;-73
2022/04/09 11:07:12;;;;;;;0.40;0.40;;;10.60;1.00;;;;;;5062434;28;20655;-71
2022/04/09 11:10:03;;;;;;;0.40;0.40;;;11.90;1.00;;;;;;5067944;28;20631;-73
2022/04/09 11:12:38;;;;;;;0.40;0.40;;;12.40;1.00;;;;;;5074021;28;20531;-74
2022/04/09 11:15:04;;;;;;;0.47;0.47;;;10.80;1.00;;;;;;5074648;28;20166;-73
2022/04/09 11:17:36;;;;;;;0.50;0.50;;;9.90;1.00;;;;;;5074335;28;20174;-73
2022/04/09 11:20:10;;;;;;;0.50;0.50;;;9.80;1.00;;;;;;5073591;28;20198;-73
2022/04/09 11:22:56;;;;;;;0.50;0.50;;;10.80;1.00;;;;;;5073903;28;20199;-74
2022/04/09 11:25:24;;;;;;;0.50;0.50;;;10.80;1.00;;;;;;5074174;28;20674;-73
2022/04/09 11:27:51;;;;;;;0.50;0.50;;;10.40;1.00;;;;;;5076944;28;20194;-73
2022/04/09 11:30:18;;;;;;;0.50;0.50;;;10.50;1.00;;;;;;5080221;28;20222;-73
2022/04/09 11:32:46;;;;;;;0.50;0.50;;;10.00;1.00;;;;;;5088847;28;20174;-72
2022/04/09 11:35:11;;;;;;;0.50;0.50;;;12.00;1.00;;;;;;5087741;28;20179;-72
2022/04/09 11:37:42;;;;;;;0.60;0.60;;;12.30;1.00;;;;;;5085928;28;20206;-72
2022/04/09 11:40:09;;;;;;;0.53;0.53;;;12.20;1.00;;;;;;5087226;28;20198;-71
2022/04/09 11:42:55;;;;;;;0.60;0.60;;;12.80;1.00;;;;;;5087077;28;20178;-72
2022/04/09 11:45:30;;;;;;;0.50;0.50;;;13.00;1.00;;;;;;5088451;28;20180;-72
2022/04/09 11:47:58;;;;;;;0.43;0.43;;;12.70;1.00;;;;;;5079764;28;20170;-71
2022/04/09 11:50:31;;;;;;;0.50;0.50;;;12.00;1.00;;;;;;5077725;28;20254;-72
2022/04/09 11:52:57;;;;;;;0.60;0.60;;;11.70;1.00;;;;;;5066117;28;20298;-72
2022/04/09 11:55:22;;;;;;;0.60;0.60;;;12.90;1.00;;;;;;5054140;28;20198;-72
2022/04/09 11:57:50;;;;;;;0.40;0.40;;;11.40;1.00;;;;;;5060373;28;20593;-72
2022/04/09 12:00:16;;;;;;;0.50;0.50;;;11.40;1.00;;;;;;5076219;28;20198;-72
2022/04/09 12:02:42;;;;;;;0.47;0.47;;;10.20;1.00;;;;;;5079608;28;20174;-72
2022/04/09 12:05:10;;;;;;;0.40;0.40;;;10.40;1.00;;;;;;5078553;28;20661;-72
2022/04/09 12:07:44;;;;;;;0.50;0.50;;;9.50;1.00;;;;;;5080679;28;20220;-71
2022/04/09 12:10:22;;;;;;;0.50;0.50;;;10.10;1.00;;;;;;5081211;28;20564;-70
2022/04/09 12:13:11;;;;;;;0.70;0.70;;;11.50;1.00;;;;;;5080553;28;20178;-72
2022/04/09 12:15:37;;;;;;;0.50;0.50;;;12.20;1.00;;;;;;5077288;28;20206;-72
2022/04/09 12:18:04;;;;;;;0.60;0.60;;;12.30;1.00;;;;;;5079018;28;20217;-71
2022/04/09 12:20:44;;;;;;;0.50;0.50;;;11.80;1.00;;;;;;5077725;28;20663;-71
2022/04/09 12:23:09;;;;;;;0.50;0.50;;;11.70;1.00;;;;;;5079442;28;20524;-72
2022/04/09 12:25:43;;;;;;;0.57;0.57;;;11.70;1.00;;;;;;5078620;28;20201;-72
2022/04/09 12:28:23;;;;;;;0.50;0.50;;;11.80;1.00;;;;;;5081688;28;20265;-72
2022/04/09 12:30:51;;;;;;;0.60;0.60;;;12.20;1.00;;;;;;5073550;28;20186;-72
2022/04/09 12:33:18;;;;;;;0.47;0.47;;;11.60;1.00;;;;;;5079299;28;20182;-72
2022/04/09 12:35:43;;;;;;;0.50;0.50;;;11.60;1.00;;;;;;5079015;28;20569;-73
2022/04/09 12:38:09;;;;;;;0.50;0.50;;;12.10;1.00;;;;;;5073821;28;20209;-72
2022/04/09 12:40:36;;;;;;;0.50;0.50;;;12.20;1.00;;;;;;5073500;28;20207;-72
2022/04/09 12:43:03;;;;;;;0.50;0.50;;;11.70;1.00;;;;;;5074584;28;20651;-73
2022/04/09 12:45:28;;;;;;;0.50;0.50;;;11.10;1.00;;;;;;5073344;28;20179;-71
2022/04/09 12:47:57;;;;;;;0.50;0.50;;;11.30;1.00;;;;;;5072511;28;20240;-72
2022/04/09 12:50:27;;;;;;;0.60;0.60;;;11.10;1.00;;;;;;5069224;28;20267;-73
2022/04/09 12:52:54;;;;;;;0.50;0.50;;;10.90;1.00;;;;;;5063795;28;20516;-73
2022/04/09 12:55:22;;;;;;;0.53;0.53;;;10.50;1.00;;;;;;5069178;28;20236;-73
2022/04/09 12:57:47;;;;;;;0.53;0.53;;;9.80;1.00;;;;;;5062422;28;20294;-73
2022/04/09 13:00:14;;;;;;;0.50;0.50;;;9.70;1.00;;;;;;5065190;28;20227;-73
2022/04/09 13:02:44;;;;;;;0.60;0.60;;;9.70;1.00;;;;;;5069682;28;20174;-74